Time;durP1;ratioP1;P1;durP2;ratioP2;P2;SDS_P1;SDS_P2;PMS_P1;PMS_P2;Temp;Humidity;BMP_temperature;BMP_pressure;BME280_temperature;BME280_humidity;BME280_pressure;Samples;Min_cycle;Max_cycle;Signal;HPM_P1;HPM_P2
2022/07/15 00:00:09;;;;;;;3.70;3.30;;;16.20;58.50;;;14.94;60.79;98168.69;5001478;28;21042;-70
2022/07/15 00:02:36;;;;;;;5.80;3.53;;;16.20;58.70;;;15.22;61.27;98203.25;4998427;28;20570;-72
2022/07/15 00:05:03;;;;;;;5.60;3.70;;;16.10;58.90;;;15.24;61.27;98200.31;4999822;28;20544;-75
2022/07/15 00:07:31;;;;;;;5.03;3.23;;;16.10;59.10;;;15.17;60.91;98205.91;4998646;28;20538;-73
2022/07/15 00:12:50;;;;;;;7.47;3.60;;;16.00;58.90;;;15.12;61.29;98206.59;5013375;28;20459;-69
2022/07/15 00:15:19;;;;;;;5.57;3.30;;;15.90;59.30;;;15.01;60.97;98202.84;5006998;28;20469;-70
2022/07/15 00:17:46;;;;;;;3.13;2.87;;;15.90;59.20;;;14.96;61.49;98212.78;5004574;28;20447;-70
2022/07/15 00:20:15;;;;;;;4.80;3.40;;;15.80;59.30;;;14.79;61.51;98194.50;5001852;28;20467;-72
2022/07/15 00:22:44;;;;;;;6.17;3.30;;;15.80;59.50;;;14.77;62.09;98209.38;5005457;28;20833;-71
2022/07/15 00:25:15;;;;;;;4.20;3.30;;;15.70;59.90;;;14.64;62.12;98216.72;4996570;28;20455;-69
2022/07/15 00:27:57;;;;;;;4.30;3.57;;;15.50;60.30;;;14.55;62.66;98212.69;5010787;28;20965;-73
2022/07/15 00:30:29;;;;;;;3.83;3.40;;;15.40;60.70;;;14.45;63.15;98211.38;5001623;28;20529;-69
2022/07/15 00:32:57;;;;;;;4.20;3.70;;;15.40;60.90;;;14.57;62.76;98210.56;5003357;28;20454;-70
2022/07/15 00:35:24;;;;;;;4.77;3.67;;;15.40;61.00;;;14.36;63.34;98206.53;5015978;28;20502;-71
2022/07/15 00:37:51;;;;;;;7.40;2.97;;;15.30;61.50;;;14.28;63.87;98205.84;5010193;28;20943;-70
2022/07/15 00:40:20;;;;;;;6.83;3.53;;;15.20;61.80;;;14.28;63.68;98208.56;5004787;28;20456;-73
2022/07/15 00:42:48;;;;;;;4.37;3.27;;;15.20;61.90;;;14.20;63.85;98202.63;5002742;28;20479;-70
2022/07/15 00:45:17;;;;;;;4.07;3.20;;;15.20;62.20;;;14.17;63.78;98204.72;5002035;28;20536;-73
2022/07/15 00:47:46;;;;;;;5.13;3.33;;;15.10;62.20;;;14.19;64.12;98214.56;5004920;28;20466;-77
2022/07/15 00:50:14;;;;;;;5.10;3.27;;;15.10;62.50;;;14.23;63.99;98213.03;4993810;28;20491;-70
2022/07/15 00:52:45;;;;;;;4.70;2.97;;;15.10;62.50;;;14.14;64.09;98223.41;5008909;28;20466;-71
2022/07/15 00:55:14;;;;;;;4.33;3.33;;;15.00;62.60;;;14.15;63.78;98206.88;5006098;28;20482;-69
2022/07/15 00:57:45;;;;;;;3.57;3.27;;;15.10;63.00;;;14.09;64.16;98220.56;5005425;28;20530;-72
2022/07/15 01:00:14;;;;;;;4.60;3.20;;;15.00;63.20;;;14.16;63.97;98216.66;5002872;28;20469;-70
2022/07/15 01:02:49;;;;;;;8.10;3.17;;;15.00;63.50;;;14.06;64.15;98224.59;5005426;28;20459;-75
2022/07/15 01:05:19;;;;;;;7.67;2.97;;;14.90;63.40;;;13.82;64.80;98219.09;5005297;28;20465;-71
2022/07/15 01:07:49;;;;;;;5.17;2.90;;;14.80;64.00;;;13.75;65.40;98223.78;5010675;28;20513;-70
2022/07/15 01:10:17;;;;;;;5.90;3.20;;;14.70;64.90;;;13.68;65.49;98225.75;4994480;28;20533;-70
2022/07/15 01:12:48;;;;;;;5.70;3.40;;;14.60;65.30;;;13.59;65.96;98222.53;4991813;28;20460;-73
2022/07/15 01:15:17;;;;;;;4.10;3.43;;;14.40;65.70;;;13.63;65.74;98223.72;4995094;28;20478;-75
2022/07/15 01:17:45;;;;;;;5.47;3.47;;;14.50;65.90;;;13.58;65.32;98227.16;5009680;28;20546;-72
2022/07/15 01:20:15;;;;;;;8.70;3.87;;;14.50;65.40;;;13.66;65.02;98206.16;4992012;28;20550;-71
2022/07/15 01:22:43;;;;;;;3.93;3.63;;;14.60;65.60;;;13.83;64.67;98228.88;5009912;28;21254;-75
2022/07/15 01:25:10;;;;;;;6.47;3.70;;;14.70;65.50;;;13.76;65.88;98235.47;5004044;28;20958;-76
2022/07/15 01:27:38;;;;;;;5.17;3.37;;;14.60;66.20;;;13.57;65.70;98244.50;5006329;28;20490;-69
2022/07/15 01:30:06;;;;;;;4.77;3.70;;;14.50;66.30;;;13.47;66.19;98236.06;5000630;28;20568;-77
2022/07/15 01:32:33;;;;;;;6.63;3.43;;;14.40;66.70;;;13.48;66.46;98248.59;4997366;28;20463;-70
2022/07/15 01:35:01;;;;;;;4.37;3.60;;;14.40;67.40;;;13.39;66.69;98242.63;4996619;28;20483;-72
2022/07/15 01:37:28;;;;;;;4.57;4.07;;;14.30;67.50;;;13.48;66.74;98247.75;4997987;28;20460;-73
2022/07/15 01:39:57;;;;;;;4.57;3.43;;;14.30;67.90;;;13.46;66.96;98250.69;5011234;28;20454;-71
2022/07/15 01:42:24;;;;;;;3.50;3.20;;;14.30;68.30;;;13.48;67.02;98254.00;5015399;28;20466;-76
2022/07/15 01:44:52;;;;;;;6.60;3.40;;;14.30;68.50;;;13.53;66.66;98243.28;5002875;28;20550;-74
2022/07/15 01:47:19;;;;;;;3.70;3.40;;;14.40;68.40;;;13.50;66.74;98248.38;4998386;28;20526;-70
2022/07/15 01:49:45;;;;;;;3.80;3.30;;;14.40;68.40;;;13.41;66.79;98237.78;5000154;28;20447;-71
2022/07/15 01:52:13;;;;;;;7.03;3.10;;;14.30;68.50;;;13.40;66.82;98248.84;5002646;28;20944;-75
2022/07/15 01:54:41;;;;;;;3.43;3.00;;;14.30;68.80;;;13.45;66.68;98247.16;5002168;28;20593;-72
2022/07/15 01:57:09;;;;;;;5.07;3.50;;;14.30;68.70;;;13.31;66.69;98241.03;5007573;28;20516;-77
2022/07/15 01:59:37;;;;;;;5.50;3.20;;;14.20;68.60;;;13.28;67.17;98246.94;5003497;28;20461;-71
2022/07/15 02:02:04;;;;;;;3.73;3.43;;;14.10;69.30;;;13.43;67.06;98245.72;5017973;28;20469;-72
2022/07/15 02:04:32;;;;;;;4.07;3.07;;;14.20;69.60;;;13.30;66.85;98250.25;4996250;28;21129;-74
2022/07/15 02:06:59;;;;;;;3.90;3.47;;;14.20;69.40;;;13.25;67.19;98244.66;5007192;28;20573;-73
2022/07/15 02:09:27;;;;;;;5.60;4.10;;;14.10;69.60;;;13.23;67.17;98248.66;4996050;28;20464;-76
2022/07/15 02:11:54;;;;;;;4.20;3.80;;;14.10;70.00;;;13.28;67.31;98244.22;5021066;28;20494;-70
2022/07/15 02:14:23;;;;;;;4.70;3.10;;;14.10;70.30;;;13.25;67.66;98247.34;5014879;28;20470;-74
2022/07/15 02:16:51;;;;;;;4.53;3.40;;;14.10;70.40;;;13.20;67.78;98249.94;5000570;28;20461;-74
2022/07/15 02:19:19;;;;;;;6.70;3.17;;;14.00;70.40;;;13.23;67.21;98249.47;5016154;28;20466;-73
2022/07/15 02:21:46;;;;;;;4.77;2.60;;;14.10;70.50;;;13.28;66.79;98252.34;5007225;28;20666;-70
2022/07/15 02:24:13;;;;;;;6.57;2.73;;;14.10;69.80;;;13.28;66.05;98241.50;5002412;28;20465;-70
2022/07/15 02:26:40;;;;;;;3.63;3.00;;;14.20;69.30;;;13.37;65.89;98250.16;5003393;28;20688;-76
2022/07/15 02:29:08;;;;;;;5.83;3.10;;;14.20;69.00;;;13.23;66.40;98245.94;5007939;28;20764;-71
2022/07/15 02:31:37;;;;;;;5.80;3.07;;;14.10;69.30;;;13.13;67.09;98244.59;5006855;28;20614;-70
2022/07/15 02:34:04;;;;;;;5.47;3.73;;;14.00;69.60;;;13.06;67.97;98245.72;5017088;28;21013;-73
2022/07/15 02:36:32;;;;;;;7.90;3.67;;;14.00;70.30;;;12.94;68.08;98234.81;5004298;28;20470;-69
2022/07/15 02:38:59;;;;;;;4.03;3.13;;;13.90;71.10;;;13.08;67.84;98247.16;5004811;28;20478;-76
2022/07/15 02:41:26;;;;;;;5.00;3.17;;;14.00;71.10;;;12.93;68.58;98254.84;5004086;28;20997;-69
2022/07/15 02:43:54;;;;;;;5.53;3.60;;;13.80;71.50;;;12.98;68.68;98242.25;5021113;28;20966;-77
2022/07/15 02:46:21;;;;;;;7.30;4.20;;;13.80;72.30;;;13.10;68.62;98250.47;5012797;28;21040;-76
2022/07/15 02:48:50;;;;;;;5.60;3.90;;;13.90;72.40;;;12.99;69.25;98259.34;4996233;28;20462;-72
2022/07/15 02:51:17;;;;;;;3.90;3.60;;;13.90;72.80;;;12.71;70.64;98234.41;5006952;28;20486;-74
2022/07/15 02:53:46;;;;;;;5.67;4.37;;;13.80;74.30;;;12.61;71.66;98253.06;5003333;28;20564;-70
2022/07/15 02:56:13;;;;;;;3.90;3.50;;;13.60;74.60;;;12.63;71.46;98266.41;5008016;28;20456;-72
2022/07/15 02:58:41;;;;;;;4.70;4.30;;;13.50;75.40;;;12.57;71.65;98262.69;5004607;28;20466;-70
2022/07/15 03:01:08;;;;;;;4.40;4.00;;;13.50;75.80;;;12.55;71.53;98243.94;5008903;28;20454;-76
2022/07/15 03:03:35;;;;;;;8.30;4.57;;;13.50;76.00;;;12.61;72.09;98262.03;4997783;28;20495;-72
2022/07/15 03:06:04;;;;;;;4.23;3.93;;;13.50;76.30;;;12.61;71.76;98262.03;4996137;28;20475;-71
2022/07/15 03:08:31;;;;;;;5.00;3.97;;;13.50;76.30;;;12.66;71.83;98255.94;5000942;28;20468;-73
2022/07/15 03:10:58;;;;;;;4.57;4.13;;;13.50;76.30;;;12.56;71.90;98269.16;5000020;28;20563;-71
2022/07/15 03:13:26;;;;;;;4.30;3.67;;;13.50;76.50;;;12.48;72.75;98270.28;5000888;28;20469;-72
2022/07/15 03:15:53;;;;;;;4.23;3.83;;;13.50;77.30;;;12.49;72.44;98266.50;4994893;28;20863;-72
2022/07/15 03:18:20;;;;;;;6.53;4.07;;;13.40;77.30;;;12.43;73.18;98276.34;4996459;28;20551;-74
2022/07/15 03:20:48;;;;;;;5.67;3.80;;;13.40;78.00;;;12.35;73.46;98271.19;5000502;28;20526;-70
2022/07/15 03:23:17;;;;;;;5.03;3.93;;;13.30;78.10;;;12.59;72.55;98276.84;5012382;28;21126;-72
2022/07/15 03:25:44;;;;;;;4.23;3.83;;;13.40;78.30;;;12.37;72.93;98277.25;5000837;28;20456;-70
2022/07/15 03:28:12;;;;;;;4.30;3.50;;;13.30;77.90;;;12.30;73.48;98281.88;4995730;28;20471;-80
2022/07/15 03:30:39;;;;;;;5.63;3.70;;;13.20;78.40;;;12.30;73.25;98279.16;5003665;28;20481;-74
2022/07/15 03:33:07;;;;;;;4.93;4.13;;;13.20;78.50;;;12.45;72.35;98276.94;5001207;28;20656;-71
2022/07/15 03:35:34;;;;;;;6.10;4.00;;;13.30;78.40;;;12.49;72.02;98290.06;4994605;28;21781;-72
2022/07/15 03:38:01;;;;;;;9.43;4.43;;;13.40;78.30;;;12.53;71.74;98286.69;5002754;28;20550;-70
2022/07/15 03:40:30;;;;;;;8.50;4.27;;;13.50;77.80;;;12.42;72.48;98288.25;4999866;28;20465;-70
2022/07/15 03:42:58;;;;;;;4.40;4.07;;;13.40;77.80;;;12.55;72.47;98291.91;4997491;28;20561;-73
2022/07/15 03:45:25;;;;;;;8.37;4.50;;;13.40;78.20;;;12.75;71.93;98287.13;4995795;28;20462;-71
2022/07/15 03:47:52;;;;;;;5.50;4.50;;;13.60;78.40;;;12.72;73.26;98286.72;4996124;28;20463;-73
2022/07/15 03:50:20;;;;;;;9.33;4.67;;;13.70;79.40;;;12.64;74.50;98298.69;4998968;28;20474;-71
2022/07/15 03:52:47;;;;;;;5.90;5.40;;;13.70;80.70;;;12.57;75.83;98306.88;5000671;28;20462;-75
2022/07/15 03:55:15;;;;;;;6.30;5.70;;;13.60;81.60;;;12.50;76.56;98299.84;5004502;28;20476;-72
2022/07/15 03:57:43;;;;;;;6.30;5.07;;;13.60;82.50;;;12.49;76.62;98319.88;5002985;28;20466;-74
2022/07/15 04:00:12;;;;;;;5.90;5.33;;;13.60;83.00;;;12.37;77.43;98309.75;5015223;28;20518;-71
2022/07/15 04:02:39;;;;;;;6.47;5.90;;;13.50;83.70;;;12.49;77.39;98325.28;5000323;28;20554;-70
2022/07/15 04:05:08;;;;;;;8.10;5.70;;;13.50;84.30;;;12.73;76.96;98318.19;4997580;28;20567;-71
2022/07/15 04:07:36;;;;;;;5.93;5.30;;;13.60;84.40;;;12.61;76.52;98307.25;4996614;28;20934;-71
2022/07/15 04:10:05;;;;;;;5.90;5.40;;;13.70;83.90;;;12.78;75.95;98317.53;4995771;28;20456;-71
2022/07/15 04:12:32;;;;;;;7.83;5.67;;;13.80;83.70;;;12.84;76.10;98319.38;5000265;28;20454;-72
2022/07/15 04:15:01;;;;;;;7.67;5.50;;;13.90;83.20;;;13.06;75.50;98327.09;4998682;28;20484;-75
2022/07/15 04:17:28;;;;;;;6.80;5.20;;;14.00;83.00;;;13.24;74.28;98327.09;5010937;28;20473;-73
2022/07/15 04:19:55;;;;;;;7.77;5.47;;;14.30;81.30;;;14.03;71.29;98328.28;4998633;28;20465;-74
2022/07/15 04:22:23;;;;;;;5.33;4.83;;;15.00;79.00;;;14.32;68.87;98274.13;5003267;28;21124;-75
2022/07/15 04:24:50;;;;;;;4.93;4.47;;;15.80;76.50;;;15.24;66.48;98315.47;4996998;28;20453;-70
2022/07/15 04:27:17;;;;;;;7.87;4.90;;;16.50;73.80;;;15.70;63.86;98328.38;5002879;28;20556;-73
2022/07/15 04:29:45;;;;;;;9.40;5.13;;;17.10;70.90;;;16.09;62.46;98325.06;5016594;28;20472;-70
2022/07/15 04:32:13;;;;;;;6.37;4.77;;;17.40;69.60;;;16.17;60.98;98329.31;5004379;28;20461;-71
2022/07/15 04:34:40;;;;;;;6.33;4.93;;;17.70;67.30;;;16.06;61.38;98328.28;5013741;28;20482;-71
2022/07/15 04:37:07;;;;;;;9.57;4.70;;;17.60;66.90;;;16.54;60.04;98320.66;5020539;28;20522;-74
2022/07/15 04:39:34;;;;;;;5.77;4.73;;;18.00;66.20;;;17.12;57.29;98276.84;5007928;28;20537;-72
2022/07/15 04:42:02;;;;;;;7.97;4.47;;;18.80;64.40;;;17.08;57.37;98281.97;5010210;28;20465;-73
2022/07/15 04:44:29;;;;;;;5.53;4.60;;;19.00;63.20;;;17.33;57.50;98326.25;4996292;28;21072;-75
2022/07/15 04:46:56;;;;;;;5.80;4.93;;;19.10;62.60;;;17.24;57.39;98306.75;4998623;28;20827;-77
2022/07/15 04:52:11;;;;;;;8.07;4.20;;;19.80;61.70;;;17.73;55.33;98237.69;5012772;28;20451;-72
2022/07/15 04:54:38;;;;;;;5.60;4.87;;;19.80;61.00;;;18.99;51.19;98230.28;4999125;28;20479;-74
2022/07/15 04:57:07;;;;;;;9.13;5.20;;;20.80;59.40;;;18.71;53.48;98310.78;5001886;28;20462;-71
2022/07/15 04:59:34;;;;;;;26.83;8.03;;;20.30;59.30;;;17.84;55.39;98324.16;4998859;28;20462;-72
2022/07/15 05:02:02;;;;;;;20.50;7.03;;;19.80;58.90;;;18.05;60.98;98272.47;4999250;28;20473;-71
2022/07/15 05:04:31;;;;;;;23.43;7.50;;;19.70;64.10;;;19.47;52.86;98338.97;5000330;28;20463;-74
2022/07/15 05:06:59;;;;;;;27.13;8.70;;;20.50;61.40;;;19.72;50.82;98329.22;5005381;28;20468;-75
2022/07/15 05:09:26;;;;;;;15.10;6.30;;;20.80;58.90;;;20.16;49.15;98317.84;4997743;28;20471;-75
2022/07/15 05:11:54;;;;;;;11.43;5.37;;;21.30;57.40;;;19.81;50.21;98339.41;5002827;28;20546;-74
2022/07/15 05:14:21;;;;;;;5.00;4.50;;;21.40;56.90;;;18.89;52.28;98337.78;5006090;28;20963;-76
2022/07/15 05:16:48;;;;;;;6.03;4.53;;;20.90;56.70;;;19.13;52.37;98333.84;4998833;28;20458;-79
2022/07/15 05:19:15;;;;;;;5.47;4.90;;;20.90;57.00;;;18.92;52.43;98337.25;4998760;28;20501;-77
2022/07/15 05:21:44;;;;;;;5.07;4.60;;;20.70;57.00;;;19.54;50.75;98332.16;5002009;28;20566;-76
2022/07/15 05:24:11;;;;;;;5.30;4.70;;;21.10;56.80;;;19.43;51.33;98340.59;5001815;28;20462;-78
2022/07/15 05:26:39;;;;;;;8.80;5.20;;;21.10;56.40;;;19.85;50.09;98338.88;5007362;28;20532;-76
2022/07/15 05:29:07;;;;;;;8.30;5.03;;;21.60;55.90;;;19.42;50.89;98342.50;5028410;28;20448;-77
2022/07/15 05:31:34;;;;;;;6.10;4.80;;;21.20;55.80;;;19.29;51.48;98332.00;5003877;28;20488;-77
2022/07/15 05:34:01;;;;;;;8.90;5.00;;;21.20;56.10;;;19.50;50.84;98336.53;5002719;28;20954;-77
2022/07/15 05:36:29;;;;;;;6.00;4.90;;;21.30;55.70;;;20.67;48.16;98335.47;5000140;28;20483;-79
2022/07/15 05:38:57;;;;;;;5.87;5.30;;;21.90;55.40;;;21.39;46.31;98337.34;4999926;28;20462;-79
2022/07/15 05:41:25;;;;;;;7.30;4.93;;;22.70;54.40;;;22.41;43.77;98333.59;5019911;28;20499;-79
2022/07/15 05:43:52;;;;;;;11.10;6.33;;;23.70;53.30;;;21.29;45.76;98337.34;5001634;28;20459;-78
2022/07/15 05:46:19;;;;;;;7.03;4.73;;;23.10;52.50;;;20.25;48.15;98345.59;5004133;28;20557;-78
2022/07/15 05:48:46;;;;;;;7.93;5.70;;;22.40;53.00;;;20.36;48.31;98344.50;5002069;28;20465;-79
2022/07/15 05:51:14;;;;;;;7.30;5.00;;;22.00;53.70;;;20.57;48.04;98349.19;5002419;28;20467;-79
2022/07/15 05:53:41;;;;;;;6.70;4.87;;;22.30;53.70;;;20.50;48.39;98349.47;5002248;28;20869;-76
2022/07/15 05:56:10;;;;;;;6.00;4.40;;;22.00;53.80;;;20.70;46.98;98342.31;5000919;28;20978;-80
2022/07/15 05:58:38;;;;;;;5.10;4.60;;;22.40;53.30;;;21.23;45.71;98350.31;4992330;28;20455;-80
2022/07/15 06:01:05;;;;;;;6.20;5.20;;;22.90;52.60;;;20.86;46.26;98355.00;5000408;28;20963;-77
2022/07/15 06:03:33;;;;;;;5.03;4.20;;;22.60;52.30;;;20.94;45.66;98351.69;5002400;28;20459;-75
2022/07/15 06:06:00;;;;;;;6.63;4.50;;;22.60;52.00;;;20.81;46.53;98355.00;4995263;28;20461;-79
2022/07/15 06:08:27;;;;;;;5.80;4.80;;;22.60;52.30;;;22.25;43.60;98346.63;5003139;28;20466;-77
2022/07/15 06:10:55;;;;;;;10.00;4.73;;;23.20;52.20;;;22.12;42.61;98345.34;5000444;28;21027;-74
2022/07/15 06:13:24;;;;;;;8.33;4.40;;;23.50;50.80;;;22.79;41.13;98358.66;5001317;28;21273;-76
2022/07/15 06:15:52;;;;;;;5.70;3.70;;;24.00;50.30;;;21.77;41.98;98354.31;4996760;28;20547;-78
2022/07/15 06:18:19;;;;;;;7.30;3.97;;;23.70;49.30;;;21.69;42.71;98354.06;4995175;28;20478;-78
2022/07/15 06:20:46;;;;;;;6.70;3.80;;;23.30;50.20;;;21.21;43.92;98363.47;4999686;28;20523;-76
2022/07/15 06:23:14;;;;;;;4.80;4.17;;;23.00;50.30;;;21.39;43.37;98348.34;5002291;28;20460;-74
2022/07/15 06:25:42;;;;;;;6.77;3.90;;;23.00;50.10;;;21.91;43.19;98359.16;4998903;28;20512;-76
2022/07/15 06:28:09;;;;;;;5.53;3.60;;;23.50;50.50;;;21.94;43.80;98358.63;5001380;28;20462;-76
2022/07/15 06:30:38;;;;;;;10.03;4.20;;;23.30;50.80;;;20.86;45.61;98368.75;5000382;28;20518;-81
2022/07/15 06:33:07;;;;;;;14.03;4.87;;;22.50;50.70;;;20.47;46.02;98369.22;5004316;28;20457;-75
2022/07/15 06:35:34;;;;;;;10.17;4.37;;;21.80;51.00;;;19.63;47.42;98343.44;4998499;28;20481;-79
2022/07/15 06:38:02;;;;;;;9.03;4.90;;;21.10;51.50;;;19.65;47.40;98354.13;5018732;28;20472;-77
2022/07/15 06:40:29;;;;;;;4.40;3.50;;;20.80;52.20;;;19.45;47.74;98358.41;5000054;28;20461;-76
2022/07/15 06:42:56;;;;;;;6.03;3.80;;;20.40;53.00;;;19.57;48.98;98362.84;4997968;28;20462;-76
2022/07/15 06:45:23;;;;;;;6.15;3.70;;;20.40;52.70;;;19.70;47.08;98359.63;4994677;28;20471;-78
2022/07/15 06:47:52;;;;;;;4.90;3.50;;;20.70;52.30;;;19.44;47.86;98367.72;4999211;28;20195;-77
2022/07/15 06:50:22;;;;;;;7.77;3.33;;;20.40;52.40;;;19.21;48.71;98364.31;5007696;28;20501;-80
2022/07/15 06:52:49;;;;;;;6.40;3.07;;;20.30;52.80;;;18.77;48.98;98359.81;4998151;28;20545;-78
2022/07/15 06:55:17;;;;;;;5.20;3.27;;;19.80;52.40;;;18.98;48.14;98363.56;4991455;28;20564;-76
2022/07/15 06:57:44;;;;;;;6.97;3.33;;;19.90;52.50;;;18.93;48.11;98325.19;4998280;28;20493;-77
2022/07/15 07:00:14;;;;;;;4.60;3.40;;;20.00;52.60;;;19.63;47.20;98353.56;4995169;28;20521;-76
2022/07/15 07:02:42;;;;;;;5.20;3.13;;;20.30;52.70;;;19.37;48.21;98358.91;4999803;28;20549;-77
2022/07/15 07:05:10;;;;;;;5.90;3.30;;;20.30;53.10;;;19.60;48.32;98359.56;4996421;28;20523;-76
2022/07/15 07:07:37;;;;;;;11.33;3.80;;;20.40;53.20;;;19.77;49.10;98365.69;5003353;28;20458;-76
2022/07/15 07:10:06;;;;;;;6.57;3.60;;;20.50;53.90;;;19.71;48.63;98371.41;5019107;28;20506;-76
2022/07/15 07:12:33;;;;;;;3.63;2.73;;;20.60;53.20;;;19.52;47.73;98369.97;5024799;28;20524;-72
2022/07/15 07:15:02;;;;;;;4.50;3.37;;;20.50;52.70;;;20.01;46.78;98369.91;5002239;28;20455;-73
2022/07/15 07:17:30;;;;;;;3.73;3.30;;;20.70;52.90;;;19.96;47.00;98373.50;5001992;28;20527;-73
2022/07/15 07:19:57;;;;;;;5.40;3.63;;;20.70;52.90;;;20.12;46.20;98365.31;5001101;28;20973;-72
2022/07/15 07:22:27;;;;;;;11.23;3.90;;;20.80;52.40;;;19.53;45.69;98321.47;5005220;28;20445;-72
2022/07/15 07:24:54;;;;;;;7.20;3.43;;;20.70;51.50;;;19.51;47.32;98357.34;5008624;28;21009;-73
2022/07/15 07:27:21;;;;;;;6.10;3.63;;;20.50;51.90;;;19.88;47.08;98363.00;4999943;28;20503;-70
2022/07/15 07:29:48;;;;;;;3.90;3.27;;;20.60;52.50;;;19.99;45.45;98352.91;4997875;28;20947;-71
2022/07/15 07:32:16;;;;;;;5.67;3.43;;;20.80;51.30;;;19.72;44.90;98357.44;4994428;28;20488;-72
2022/07/15 07:34:43;;;;;;;3.97;2.70;;;20.80;50.60;;;19.76;45.13;98353.06;4998600;28;20979;-73
2022/07/15 07:37:11;;;;;;;3.70;2.90;;;20.60;50.70;;;19.84;44.96;98359.16;5001918;28;20522;-73
2022/07/15 07:39:39;;;;;;;3.33;2.67;;;20.60;50.60;;;19.59;44.93;98349.72;4998845;28;20893;-72
2022/07/15 07:42:07;;;;;;;14.27;3.20;;;20.60;50.30;;;19.97;44.50;98353.19;4996870;28;20949;-70
2022/07/15 07:44:34;;;;;;;5.40;2.27;;;20.70;50.50;;;19.74;42.96;98355.25;4996736;28;20779;-72
2022/07/15 07:47:01;;;;;;;5.30;2.83;;;20.70;49.00;;;19.65;43.35;98356.88;4980597;28;21001;-72
2022/07/15 07:49:29;;;;;;;6.83;3.50;;;20.60;49.20;;;20.12;43.51;98359.81;4994270;28;20912;-72
2022/07/15 07:51:56;;;;;;;6.00;2.57;;;20.80;49.80;;;20.39;42.02;98348.63;4999591;28;20458;-71
2022/07/15 07:54:23;;;;;;;6.97;4.17;;;21.10;49.20;;;20.60;41.75;98352.22;5005972;28;20479;-71
2022/07/15 07:56:52;;;;;;;3.73;1.93;;;21.30;48.90;;;20.73;38.55;98347.28;4994568;28;20491;-73
2022/07/15 07:59:19;;;;;;;5.97;2.40;;;21.40;46.80;;;20.27;39.47;98351.63;4999006;28;20570;-75
2022/07/15 08:01:46;;;;;;;3.73;2.30;;;21.30;46.50;;;20.39;39.55;98351.38;5007248;28;20480;-75
2022/07/15 08:04:15;;;;;;;4.00;2.27;;;21.20;46.70;;;20.46;39.90;98354.66;5000148;28;21207;-74
2022/07/15 08:06:42;;;;;;;5.53;2.13;;;21.30;47.00;;;20.56;39.45;98351.13;5000503;28;20470;-75
2022/07/15 08:09:10;;;;;;;1.97;1.70;;;21.30;46.70;;;20.54;38.94;98345.06;5015447;28;20455;-75
2022/07/15 08:11:37;;;;;;;3.57;2.03;;;21.40;46.30;;;20.94;38.55;98345.41;5001887;28;20522;-75
2022/07/15 08:14:06;;;;;;;7.20;2.30;;;21.60;46.50;;;20.80;38.66;98347.81;5002265;28;21357;-75
2022/07/15 08:16:34;;;;;;;3.10;2.00;;;21.70;46.30;;;20.79;39.10;98340.69;4998975;28;20473;-75
2022/07/15 08:19:01;;;;;;;2.73;1.60;;;21.70;46.70;;;20.92;37.66;98350.31;5015023;28;20480;-74
2022/07/15 08:21:29;;;;;;;2.73;2.00;;;21.60;45.60;;;21.02;36.96;98327.53;5001122;28;20544;-73
2022/07/15 08:23:56;;;;;;;1.93;1.70;;;21.80;45.20;;;21.04;36.99;98352.81;4998050;28;20464;-74
2022/07/15 08:26:23;;;;;;;3.00;1.70;;;21.90;44.90;;;20.72;37.64;98335.47;5000940;28;20462;-75
2022/07/15 08:28:51;;;;;;;4.50;2.53;;;21.70;45.00;;;20.33;38.18;98328.59;5018245;28;20547;-73
2022/07/15 08:31:20;;;;;;;3.40;2.60;;;21.50;45.20;;;20.36;38.44;98360.16;5000154;28;20571;-75
2022/07/15 08:33:47;;;;;;;3.20;2.13;;;21.30;45.30;;;20.29;38.85;98349.44;5002575;28;20467;-75
2022/07/15 08:36:15;;;;;;;3.90;2.33;;;21.20;45.40;;;20.48;38.65;98357.97;5003075;28;20526;-75
2022/07/15 08:38:42;;;;;;;3.10;2.30;;;21.20;45.60;;;20.94;38.74;98345.41;5015533;28;20472;-74
2022/07/15 08:41:10;;;;;;;2.97;2.60;;;21.50;46.10;;;21.26;38.02;98355.25;5013659;28;20818;-75
2022/07/15 08:43:37;;;;;;;5.83;2.67;;;21.90;46.00;;;21.39;37.91;98353.81;4999507;28;20540;-75
2022/07/15 08:46:08;;;;;;;4.17;2.83;;;22.00;46.00;;;20.98;36.83;98349.22;4999472;28;20473;-76
2022/07/15 08:48:38;;;;;;;3.10;2.43;;;21.90;45.00;;;21.08;37.47;98351.13;5003290;28;20483;-75
2022/07/15 08:51:08;;;;;;;4.03;2.40;;;21.80;45.10;;;20.99;36.81;98328.91;5019848;28;20449;-76
2022/07/15 08:53:35;;;;;;;5.90;2.40;;;21.80;44.80;;;21.37;36.13;98345.03;4997562;28;20472;-74
2022/07/15 08:56:03;;;;;;;3.23;2.20;;;22.10;44.60;;;21.81;35.74;98334.47;4991589;28;20462;-75
2022/07/15 08:58:31;;;;;;;5.73;2.30;;;22.50;44.50;;;22.25;34.47;98335.63;5008295;28;20474;-74
2022/07/15 09:00:59;;;;;;;2.83;2.33;;;22.80;43.90;;;22.17;34.29;98339.78;5000808;28;20468;-74
2022/07/15 09:03:26;;;;;;;2.67;2.47;;;23.00;43.70;;;22.11;34.07;98344.50;4998704;28;20513;-75
2022/07/15 09:05:55;;;;;;;5.30;2.50;;;22.90;43.40;;;22.50;34.13;98326.38;5007947;28;20460;-73
2022/07/15 09:08:22;;;;;;;3.97;2.37;;;23.20;43.70;;;22.95;32.23;98326.31;5008605;28;20526;-75
2022/07/15 09:10:51;;;;;;;3.53;2.43;;;23.60;42.80;;;22.93;32.56;98318.31;5008516;28;20465;-76
2022/07/15 09:13:31;;;;;;;3.93;2.33;;;23.70;42.70;;;23.09;33.36;98337.47;5020416;28;20533;-76
2022/07/15 09:16:00;;;;;;;3.63;2.23;;;23.90;43.20;;;22.74;34.11;98342.19;5024212;28;20992;-75
2022/07/15 09:18:30;;;;;;;4.27;2.47;;;23.50;43.60;;;22.49;34.11;98336.59;5003283;28;20470;-76
2022/07/15 09:20:59;;;;;;;11.33;2.53;;;23.40;43.50;;;22.33;34.83;98333.06;5016429;28;21374;-73
2022/07/15 09:23:30;;;;;;;3.87;2.00;;;23.30;43.60;;;21.87;35.88;98338.84;4999748;28;20523;-73
2022/07/15 09:26:00;;;;;;;3.27;2.00;;;22.80;43.70;;;21.74;35.72;98332.84;5022552;28;20488;-73
2022/07/15 09:28:39;;;;;;;2.13;1.90;;;22.60;43.80;;;21.56;35.79;98325.19;5017633;28;20460;-75
2022/07/15 09:33:59;;;;;;;2.93;2.10;;;22.70;44.30;;;22.02;34.73;98330.50;5001521;28;20444;-79
2022/07/15 09:36:31;;;;;;;3.17;1.87;;;22.80;43.40;;;22.52;34.35;98346.22;4994831;28;20762;-81
2022/07/15 09:39:01;;;;;;;2.30;1.60;;;23.10;43.60;;;22.42;34.15;98340.75;4996008;28;20879;-81
2022/07/15 09:41:33;;;;;;;4.07;2.37;;;23.10;43.20;;;22.32;34.21;98344.38;5002617;28;20499;-76
2022/07/15 09:44:03;;;;;;;2.43;2.00;;;23.10;43.00;;;22.38;34.24;98339.69;5011457;28;20913;-79
2022/07/15 09:46:43;;;;;;;3.53;2.20;;;23.10;43.10;;;22.57;34.08;98343.41;4990569;28;20455;-80
2022/07/15 09:49:10;;;;;;;3.73;2.37;;;23.30;43.10;;;22.38;34.21;98339.69;4990192;28;20940;-80
2022/07/15 09:51:49;;;;;;;2.50;2.30;;;23.20;43.10;;;21.62;34.98;98307.59;4989559;28;20458;-80
2022/07/15 09:54:19;;;;;;;5.17;2.80;;;22.80;43.00;;;21.89;35.04;98345.72;5002550;28;20458;-79
2022/07/15 09:56:47;;;;;;;5.20;3.00;;;22.60;43.30;;;22.03;35.50;98340.41;4998160;28;20476;-78
2022/07/15 09:59:15;;;;;;;5.60;2.40;;;22.80;44.00;;;22.41;34.55;98306.06;4995794;28;20518;-78
2022/07/15 10:01:47;;;;;;;3.77;2.30;;;23.20;43.80;;;23.03;33.92;98333.13;4999564;28;20990;-77
2022/07/15 10:04:17;;;;;;;6.17;2.97;;;23.60;43.50;;;22.63;34.56;98346.97;4998116;28;20455;-81
2022/07/15 10:06:48;;;;;;;3.97;2.70;;;23.50;43.60;;;22.59;34.64;98346.69;5016333;28;20793;-82
2022/07/15 10:09:16;;;;;;;3.07;2.37;;;23.40;43.50;;;22.59;34.36;98343.94;4995492;28;20475;-80
2022/07/15 10:11:49;;;;;;;7.10;6.30;;;23.30;43.40;;;22.58;34.73;98345.06;5004919;28;20458;-81
2022/07/15 10:14:47;;;;;;;4.40;3.90;;;23.30;43.50;;;22.43;34.68;98347.88;5000292;28;20628;-78
2022/07/15 10:17:32;;;;;;;3.20;2.67;;;23.20;43.40;;;22.38;34.98;98339.69;5008482;28;20506;-82
2022/07/15 10:20:56;;;;;;;5.70;2.57;;;23.10;43.60;;;21.24;37.81;98349.19;4989354;28;20514;-75
2022/07/15 10:23:43;;;;;;;2.73;2.47;;;22.30;44.10;;;21.51;37.06;98346.09;4987404;28;20511;-81
2022/07/15 10:26:26;;;;;;;4.13;2.57;;;22.20;44.30;;;21.44;36.66;98300.78;5005982;28;20458;-81
2022/07/15 10:28:59;;;;;;;3.47;3.00;;;22.50;44.30;;;21.74;36.83;98332.03;5001755;28;20474;-81
2022/07/15 10:31:30;;;;;;;3.27;2.90;;;22.60;44.40;;;21.59;36.75;98339.22;5008962;28;20509;-81